Time;durP1;ratioP1;P1;durP2;ratioP2;P2;SDS_P1;SDS_P2;PMS_P1;PMS_P2;Temp;Humidity;BMP_temperature;BMP_pressure;BME280_temperature;BME280_humidity;BME280_pressure;Samples;Min_cycle;Max_cycle;Signal;HPM_P1;HPM_P2
2024/04/10 00:01:10;;;;;;;0.00;0.00;;;9.50;70.30;;;;;;5414265;26;20013;-80
2024/04/10 00:03:36;;;;;;;0.10;0.10;;;9.60;70.00;;;;;;5437188;26;19995;-80
2024/04/10 00:06:04;;;;;;;0.10;0.10;;;9.60;70.30;;;;;;5447805;26;19998;-80
2024/04/10 00:08:34;;;;;;;0.08;0.08;;;9.50;70.60;;;;;;5384088;26;20000;-80
2024/04/10 00:11:00;;;;;;;0.10;0.10;;;9.60;70.60;;;;;;5384018;26;20004;-80
2024/04/10 00:13:27;;;;;;;0.10;0.10;;;9.50;70.50;;;;;;5384870;26;20024;-80
2024/04/10 00:16:02;;;;;;;0.10;0.10;;;9.50;70.80;;;;;;5392317;26;20007;-80
2024/04/10 00:18:29;;;;;;;0.10;0.10;;;9.40;70.90;;;;;;5420168;26;20004;-80
2024/04/10 00:20:56;;;;;;;0.10;0.10;;;9.40;71.10;;;;;;5419804;26;20003;-80
2024/04/10 00:23:22;;;;;;;0.00;0.00;;;9.40;71.20;;;;;;5419860;26;19999;-80
2024/04/10 00:26:00;;;;;;;0.10;0.10;;;9.30;71.40;;;;;;5406183;26;20009;-80
2024/04/10 00:28:27;;;;;;;0.10;0.10;;;9.30;71.30;;;;;;5420880;26;20004;-80
2024/04/10 00:30:53;;;;;;;0.10;0.10;;;9.30;71.20;;;;;;5421537;26;20098;-80
2024/04/10 00:33:19;;;;;;;0.10;0.10;;;9.30;71.70;;;;;;5406184;26;20008;-81
2024/04/10 00:35:58;;;;;;;0.10;0.10;;;9.30;71.70;;;;;;5385418;26;20000;-80
2024/04/10 00:38:27;;;;;;;0.10;0.10;;;9.30;71.90;;;;;;5395765;26;20010;-80
2024/04/10 00:40:55;;;;;;;0.10;0.10;;;9.20;71.90;;;;;;5410332;26;20010;-80
2024/04/10 00:43:20;;;;;;;0.10;0.10;;;9.20;72.30;;;;;;5388175;26;20012;-80
2024/04/10 00:45:56;;;;;;;0.10;0.10;;;9.20;72.60;;;;;;5385766;26;20028;-80
2024/04/10 00:48:22;;;;;;;0.10;0.10;;;9.20;72.50;;;;;;5383904;26;20004;-80
2024/04/10 00:50:47;;;;;;;0.10;0.10;;;9.20;72.80;;;;;;5385865;26;20012;-80
2024/04/10 00:53:13;;;;;;;0.10;0.10;;;9.10;72.80;;;;;;5384789;26;19996;-80
2024/04/10 00:55:39;;;;;;;0.10;0.10;;;9.20;72.80;;;;;;5414301;26;19996;-80
2024/04/10 00:58:05;;;;;;;0.10;0.10;;;9.20;72.60;;;;;;5421531;26;19995;-80
2024/04/10 01:00:32;;;;;;;0.10;0.10;;;9.20;72.60;;;;;;5412404;26;20011;-80
2024/04/10 01:02:58;;;;;;;0.10;0.10;;;9.20;72.70;;;;;;5400485;26;20025;-80
2024/04/10 01:05:23;;;;;;;0.10;0.10;;;9.20;72.70;;;;;;5386298;26;20004;-80
2024/04/10 01:07:49;;;;;;;0.10;0.10;;;9.20;72.90;;;;;;5385412;26;20000;-80
2024/04/10 01:10:14;;;;;;;0.10;0.10;;;9.10;73.00;;;;;;5384841;26;20130;-80
2024/04/10 01:12:43;;;;;;;0.10;0.10;;;9.10;73.30;;;;;;5385316;26;20006;-80
2024/04/10 01:15:09;;;;;;;0.10;0.10;;;9.10;73.30;;;;;;5385507;26;20011;-80
2024/04/10 01:17:35;;;;;;;0.10;0.10;;;9.10;73.00;;;;;;5404569;26;20000;-80
2024/04/10 01:20:07;;;;;;;0.00;0.00;;;9.10;73.10;;;;;;5421011;26;20493;-79
2024/04/10 01:22:35;;;;;;;0.10;0.10;;;9.20;73.10;;;;;;5407245;26;20000;-79
2024/04/10 01:25:00;;;;;;;0.03;0.03;;;9.10;73.10;;;;;;5396249;26;20011;-79
2024/04/10 01:27:26;;;;;;;0.10;0.10;;;9.10;73.20;;;;;;5385029;26;19996;-79
2024/04/10 01:29:52;;;;;;;0.10;0.10;;;9.00;73.50;;;;;;5393232;26;20003;-79
2024/04/10 01:32:17;;;;;;;0.10;0.10;;;9.00;73.50;;;;;;5401045;26;20018;-80
2024/04/10 01:34:43;;;;;;;0.10;0.10;;;9.00;73.60;;;;;;5383526;26;20004;-79
2024/04/10 01:37:09;;;;;;;0.10;0.10;;;9.00;73.50;;;;;;5385200;26;20011;-80
2024/04/10 01:39:35;;;;;;;0.10;0.10;;;9.00;73.80;;;;;;5383837;26;20015;-79
2024/04/10 01:42:01;;;;;;;0.10;0.10;;;9.00;73.80;;;;;;5383163;26;20004;-79
2024/04/10 01:44:26;;;;;;;0.10;0.10;;;9.00;73.70;;;;;;5385251;26;20443;-79
2024/04/10 01:46:52;;;;;;;0.10;0.10;;;9.00;73.70;;;;;;5384584;26;20000;-79
2024/04/10 01:49:18;;;;;;;0.10;0.10;;;9.00;73.60;;;;;;5382433;26;20019;-79
2024/04/10 01:51:44;;;;;;;0.10;0.10;;;9.10;73.70;;;;;;5385008;26;19992;-79
2024/04/10 01:54:09;;;;;;;0.10;0.10;;;9.00;73.70;;;;;;5383089;26;20006;-79
2024/04/10 01:56:35;;;;;;;0.00;0.00;;;9.00;73.70;;;;;;5383976;26;20544;-80
2024/04/10 01:59:01;;;;;;;0.10;0.10;;;9.00;73.80;;;;;;5383098;26;20004;-79
2024/04/10 02:01:27;;;;;;;0.10;0.10;;;9.00;74.00;;;;;;5387355;26;20013;-80
2024/04/10 02:03:52;;;;;;;0.10;0.10;;;9.00;74.10;;;;;;5426512;26;20354;-79
2024/04/10 02:06:18;;;;;;;0.10;0.10;;;8.90;74.40;;;;;;5453315;26;19999;-79
2024/04/10 02:08:44;;;;;;;0.10;0.10;;;8.90;74.20;;;;;;5433260;26;20019;-79
2024/04/10 02:11:28;;;;;;;0.10;0.10;;;9.00;74.60;;;;;;5418533;26;20466;-80
2024/04/10 02:13:54;;;;;;;0.10;0.10;;;9.00;74.50;;;;;;5417785;26;20011;-78
2024/04/10 02:16:23;;;;;;;0.10;0.10;;;9.10;74.20;;;;;;5384060;26;20442;-79
2024/04/10 02:18:50;;;;;;;0.10;0.10;;;9.00;74.70;;;;;;5389307;26;20098;-78
2024/04/10 02:21:17;;;;;;;0.10;0.10;;;9.00;74.80;;;;;;5384761;26;19996;-79
2024/04/10 02:23:42;;;;;;;0.10;0.10;;;9.00;74.70;;;;;;5382169;26;20032;-78
2024/04/10 02:26:12;;;;;;;0.10;0.10;;;9.00;74.80;;;;;;5384187;26;20089;-78
2024/04/10 02:28:38;;;;;;;0.10;0.10;;;9.00;74.60;;;;;;5383490;26;20039;-78
2024/04/10 02:31:04;;;;;;;0.00;0.00;;;9.00;74.40;;;;;;5403338;26;19996;-79
2024/04/10 02:33:34;;;;;;;0.10;0.10;;;8.90;74.50;;;;;;5383293;26;20014;-78
2024/04/10 02:36:00;;;;;;;0.10;0.10;;;8.90;74.80;;;;;;5412010;26;20001;-78
2024/04/10 02:38:29;;;;;;;0.10;0.10;;;8.90;74.70;;;;;;5383330;26;20000;-78
2024/04/10 02:40:54;;;;;;;0.10;0.10;;;8.80;74.80;;;;;;5415776;26;20049;-78
2024/04/10 02:43:21;;;;;;;0.10;0.10;;;8.80;75.10;;;;;;5420178;26;20400;-78
2024/04/10 02:46:00;;;;;;;0.10;0.10;;;8.80;75.00;;;;;;5403108;26;20532;-79
2024/04/10 02:48:27;;;;;;;0.10;0.10;;;8.70;75.10;;;;;;5384418;26;20028;-78
2024/04/10 02:50:53;;;;;;;0.10;0.10;;;8.80;75.00;;;;;;5381590;26;20012;-79
2024/04/10 02:53:19;;;;;;;0.10;0.10;;;8.70;74.90;;;;;;5382181;26;20060;-79
2024/04/10 02:55:49;;;;;;;0.10;0.10;;;8.80;74.70;;;;;;5383953;26;20347;-78
2024/04/10 02:58:16;;;;;;;0.10;0.10;;;8.70;75.20;;;;;;5383062;26;20018;-79
2024/04/10 03:00:50;;;;;;;0.10;0.10;;;8.60;75.70;;;;;;5405143;26;20006;-78
2024/04/10 03:03:16;;;;;;;0.10;0.10;;;8.50;75.90;;;;;;5417285;26;19997;-78
2024/04/10 03:05:43;;;;;;;0.10;0.10;;;8.50;76.00;;;;;;5382085;26;19996;-79
2024/04/10 03:08:12;;;;;;;0.10;0.10;;;8.60;75.70;;;;;;5382079;26;19996;-78
2024/04/10 03:10:38;;;;;;;0.03;0.03;;;8.50;75.80;;;;;;5382824;26;20421;-78
2024/04/10 03:13:04;;;;;;;0.10;0.10;;;8.50;75.70;;;;;;5381747;26;20082;-78
2024/04/10 03:15:31;;;;;;;0.10;0.10;;;8.50;75.60;;;;;;5380938;26;20443;-80
2024/04/10 03:17:57;;;;;;;0.10;0.10;;;8.50;75.80;;;;;;5383847;26;20338;-80
2024/04/10 03:20:23;;;;;;;0.10;0.10;;;8.40;75.60;;;;;;5383791;26;20321;-80
2024/04/10 03:22:49;;;;;;;0.10;0.10;;;8.40;75.70;;;;;;5381629;26;20016;-78
2024/04/10 03:25:15;;;;;;;0.10;0.10;;;8.40;75.90;;;;;;5381566;26;20000;-78
2024/04/10 03:27:42;;;;;;;0.10;0.10;;;8.40;76.20;;;;;;5383711;26;20443;-78
2024/04/10 03:30:08;;;;;;;0.10;0.10;;;8.40;76.30;;;;;;5395455;26;20040;-78
2024/04/10 03:32:34;;;;;;;0.10;0.10;;;8.40;76.20;;;;;;5382653;26;20005;-78
2024/04/10 03:35:00;;;;;;;0.10;0.10;;;8.40;76.10;;;;;;5383270;26;20000;-79
2024/04/10 03:37:26;;;;;;;0.10;0.10;;;8.40;75.90;;;;;;5389673;26;20461;-79
2024/04/10 03:39:52;;;;;;;0.10;0.10;;;8.40;75.90;;;;;;5414101;26;20000;-79
2024/04/10 03:42:18;;;;;;;0.10;0.10;;;8.30;75.90;;;;;;5386767;26;20010;-78
2024/04/10 03:44:44;;;;;;;0.10;0.10;;;8.30;75.60;;;;;;5386725;26;19997;-79
2024/04/10 03:47:10;;;;;;;0.00;0.00;;;8.30;75.70;;;;;;5385942;26;20015;-78
2024/04/10 03:49:35;;;;;;;0.05;0.05;;;8.20;76.00;;;;;;5386937;26;20474;-78
2024/04/10 03:52:01;;;;;;;0.10;0.10;;;8.20;76.20;;;;;;5384238;26;20015;-79
2024/04/10 03:54:27;;;;;;;0.10;0.10;;;8.20;76.20;;;;;;5384172;26;20008;-78
2024/04/10 03:56:53;;;;;;;0.10;0.10;;;8.20;76.30;;;;;;5385720;26;20339;-78
2024/04/10 03:59:19;;;;;;;0.10;0.10;;;8.20;76.20;;;;;;5385775;26;20414;-78
2024/04/10 04:01:45;;;;;;;0.10;0.10;;;8.20;76.00;;;;;;5422095;26;20027;-78
2024/04/10 04:04:11;;;;;;;0.10;0.10;;;8.20;75.70;;;;;;5440222;26;20052;-79
2024/04/10 04:06:36;;;;;;;0.10;0.10;;;8.20;75.90;;;;;;5458133;26;20348;-79
2024/04/10 04:09:02;;;;;;;0.10;0.10;;;8.20;76.10;;;;;;5455334;26;20003;-79
2024/04/10 04:11:28;;;;;;;0.10;0.10;;;8.20;75.90;;;;;;5455347;26;19998;-79
2024/04/10 04:13:54;;;;;;;0.10;0.10;;;8.10;76.10;;;;;;5418277;26;20462;-78
2024/04/10 04:16:20;;;;;;;0.10;0.10;;;8.10;76.10;;;;;;5386305;26;20477;-78
2024/04/10 04:18:45;;;;;;;0.10;0.10;;;8.10;76.10;;;;;;5383954;26;20015;-80
2024/04/10 04:21:11;;;;;;;0.10;0.10;;;8.10;76.30;;;;;;5390212;26;20110;-80
2024/04/10 04:23:37;;;;;;;0.10;0.10;;;8.10;76.40;;;;;;5386187;26;20016;-80
2024/04/10 04:26:05;;;;;;;0.10;0.10;;;8.10;76.40;;;;;;5386090;26;20005;-80
2024/04/10 04:28:31;;;;;;;0.10;0.10;;;8.00;76.60;;;;;;5385421;26;20011;-80
2024/04/10 04:30:57;;;;;;;0.10;0.10;;;8.00;76.70;;;;;;5408953;26;20423;-80
2024/04/10 04:33:23;;;;;;;0.10;0.10;;;8.00;76.50;;;;;;5397499;26;19996;-78
2024/04/10 04:35:48;;;;;;;0.10;0.10;;;8.00;76.70;;;;;;5415103;26;20010;-79
2024/04/10 04:38:15;;;;;;;0.10;0.10;;;8.00;76.60;;;;;;5383029;26;20454;-78
2024/04/10 04:40:41;;;;;;;0.10;0.10;;;8.00;76.80;;;;;;5383864;26;20036;-79
2024/04/10 04:43:10;;;;;;;0.10;0.10;;;8.10;76.60;;;;;;5416851;26;20003;-78
2024/04/10 04:45:40;;;;;;;0.10;0.10;;;8.00;76.60;;;;;;5411977;26;20051;-78
2024/04/10 04:48:10;;;;;;;0.10;0.10;;;8.00;76.70;;;;;;5384085;26;20342;-77
2024/04/10 04:50:41;;;;;;;0.10;0.10;;;8.00;76.90;;;;;;5396800;26;20138;-79
2024/04/10 04:53:11;;;;;;;0.10;0.10;;;8.00;76.80;;;;;;5399256;26;20353;-78
2024/04/10 04:55:37;;;;;;;0.10;0.10;;;8.00;76.70;;;;;;5401492;26;20719;-75
2024/04/10 04:58:04;;;;;;;0.10;0.10;;;7.90;77.20;;;;;;5407262;26;20527;-74
2024/04/10 05:00:33;;;;;;;0.10;0.10;;;8.00;77.20;;;;;;5414436;26;20038;-77
2024/04/10 05:02:59;;;;;;;0.10;0.10;;;8.00;77.20;;;;;;5401913;26;20074;-76
2024/04/10 05:05:25;;;;;;;0.10;0.10;;;8.10;77.30;;;;;;5383536;26;20435;-75
2024/04/10 05:07:51;;;;;;;0.10;0.10;;;8.10;77.10;;;;;;5419253;26;20007;-75
2024/04/10 05:10:18;;;;;;;0.10;0.10;;;8.00;77.30;;;;;;5408453;26;20434;-75
2024/04/10 05:12:44;;;;;;;0.10;0.10;;;7.90;77.40;;;;;;5384458;26;20000;-75
2024/04/10 05:15:11;;;;;;;0.10;0.10;;;7.90;77.80;;;;;;5384919;26;20015;-74
2024/04/10 05:17:45;;;;;;;0.10;0.10;;;7.90;77.80;;;;;;5406938;26;20456;-75
2024/04/10 05:20:14;;;;;;;0.10;0.10;;;7.90;77.90;;;;;;5419225;26;20076;-75
2024/04/10 05:22:40;;;;;;;0.10;0.10;;;8.00;78.00;;;;;;5418472;26;20069;-77
2024/04/10 05:25:06;;;;;;;0.10;0.10;;;8.00;77.90;;;;;;5397283;26;20012;-75
2024/04/10 05:27:33;;;;;;;0.10;0.10;;;8.10;77.90;;;;;;5391083;26;20007;-76
2024/04/10 05:30:01;;;;;;;0.10;0.10;;;8.00;78.30;;;;;;5401736;26;20462;-76
2024/04/10 05:32:27;;;;;;;0.10;0.10;;;8.00;78.20;;;;;;5400479;26;20088;-76
2024/04/10 05:34:54;;;;;;;0.10;0.10;;;8.00;78.40;;;;;;5398861;26;20005;-76
2024/04/10 05:37:21;;;;;;;0.10;0.10;;;8.00;78.80;;;;;;5396633;26;20011;-76
2024/04/10 05:40:05;;;;;;;0.10;0.10;;;8.10;78.70;;;;;;5400746;26;19999;-76
2024/04/10 05:42:32;;;;;;;0.10;0.10;;;8.10;78.90;;;;;;5384511;26;20458;-76
2024/04/10 05:44:58;;;;;;;0.10;0.10;;;8.20;78.60;;;;;;5403303;26;20350;-76
2024/04/10 05:47:24;;;;;;;0.10;0.10;;;8.20;78.60;;;;;;5398539;26;20073;-76
2024/04/10 05:49:49;;;;;;;0.10;0.10;;;8.30;78.30;;;;;;5389355;26;20009;-76
2024/04/10 05:52:15;;;;;;;0.10;0.10;;;8.30;78.30;;;;;;5385075;26;20000;-76
2024/04/10 05:54:41;;;;;;;0.10;0.10;;;8.30;78.20;;;;;;5386024;26;20001;-76
2024/04/10 05:57:07;;;;;;;0.10;0.10;;;8.30;78.40;;;;;;5384927;26;20365;-76
2024/04/10 05:59:32;;;;;;;0.10;0.10;;;8.30;78.60;;;;;;5387207;26;20010;-76
2024/04/10 06:01:58;;;;;;;0.10;0.10;;;8.30;79.00;;;;;;5398622;26;20451;-76
2024/04/10 06:04:23;;;;;;;0.10;0.10;;;8.30;78.80;;;;;;5443915;26;19998;-76
2024/04/10 06:06:49;;;;;;;0.10;0.10;;;8.50;78.60;;;;;;5456286;26;20009;-76
2024/04/10 06:09:15;;;;;;;0.10;0.10;;;8.50;78.70;;;;;;5456891;26;20010;-76
2024/04/10 06:11:40;;;;;;;0.10;0.10;;;8.60;78.50;;;;;;5419782;26;19995;-76
2024/04/10 06:14:06;;;;;;;0.10;0.10;;;8.70;78.00;;;;;;5402390;26;20010;-76
2024/04/10 06:16:31;;;;;;;0.10;0.10;;;8.70;78.00;;;;;;5421763;26;20008;-76
2024/04/10 06:18:57;;;;;;;0.10;0.10;;;8.80;78.00;;;;;;5440589;26;20013;-76
2024/04/10 06:21:23;;;;;;;0.10;0.10;;;8.80;78.20;;;;;;5440497;26;20353;-75
2024/04/10 06:23:48;;;;;;;0.10;0.10;;;8.90;78.20;;;;;;5410768;26;20076;-76
2024/04/10 06:26:14;;;;;;;0.10;0.10;;;9.00;78.20;;;;;;5405457;26;20010;-76
2024/04/10 06:28:39;;;;;;;0.10;0.10;;;9.00;78.50;;;;;;5410419;26;20470;-76
2024/04/10 06:31:07;;;;;;;0.10;0.10;;;9.10;78.00;;;;;;5394590;26;20445;-76
2024/04/10 06:33:32;;;;;;;0.10;0.10;;;9.20;77.90;;;;;;5402206;26;19995;-76
2024/04/10 06:36:04;;;;;;;0.10;0.10;;;9.20;77.90;;;;;;5419212;26;20006;-76
2024/04/10 06:38:31;;;;;;;0.10;0.10;;;9.30;78.30;;;;;;5395302;26;20007;-76
2024/04/10 06:40:59;;;;;;;0.10;0.10;;;9.30;77.80;;;;;;5400202;26;20050;-76
2024/04/10 06:43:25;;;;;;;0.10;0.10;;;9.40;78.00;;;;;;5398517;26;20077;-76
2024/04/10 06:45:58;;;;;;;0.10;0.10;;;9.40;77.80;;;;;;5396550;26;20003;-77
2024/04/10 06:48:27;;;;;;;0.10;0.10;;;9.50;77.40;;;;;;5382843;26;20073;-76
2024/04/10 06:50:55;;;;;;;0.10;0.10;;;9.60;77.30;;;;;;5381537;26;20004;-76
2024/04/10 06:53:22;;;;;;;0.10;0.10;;;9.60;77.30;;;;;;5383545;26;20013;-76
2024/04/10 06:55:57;;;;;;;0.10;0.10;;;9.80;77.70;;;;;;5383776;26;20000;-76
2024/04/10 06:58:24;;;;;;;0.10;0.10;;;9.90;77.30;;;;;;5412281;26;19996;-76
2024/04/10 07:01:02;;;;;;;0.10;0.10;;;9.90;77.00;;;;;;5397717;26;20004;-76
2024/04/10 07:03:29;;;;;;;0.10;0.10;;;10.00;77.20;;;;;;5400553;26;19996;-76
2024/04/10 07:06:09;;;;;;;0.10;0.10;;;10.10;77.20;;;;;;5417910;26;20030;-76
2024/04/10 07:08:36;;;;;;;0.10;0.10;;;10.10;77.30;;;;;;5393954;26;20000;-76
2024/04/10 07:11:09;;;;;;;0.10;0.10;;;10.10;77.00;;;;;;5383398;26;19996;-76
2024/04/10 07:13:35;;;;;;;0.10;0.10;;;10.20;76.90;;;;;;5384270;26;20081;-76
2024/04/10 07:16:03;;;;;;;0.10;0.10;;;10.20;76.70;;;;;;5386782;26;19996;-76
2024/04/10 07:18:29;;;;;;;0.10;0.10;;;10.20;76.60;;;;;;5386770;26;20041;-76
2024/04/10 07:21:03;;;;;;;0.10;0.10;;;10.20;76.90;;;;;;5385597;26;20450;-76
2024/04/10 07:23:29;;;;;;;0.20;0.20;;;10.30;76.70;;;;;;5387436;26;20032;-76
2024/04/10 07:26:07;;;;;;;0.20;0.20;;;10.60;76.40;;;;;;5389108;26;20008;-76
2024/04/10 07:28:33;;;;;;;0.20;0.20;;;11.20;75.20;;;;;;5408669;26;20103;-76
2024/04/10 07:30:58;;;;;;;0.20;0.20;;;11.80;73.20;;;;;;5390046;26;20004;-76
2024/04/10 07:33:24;;;;;;;0.20;0.20;;;12.20;71.90;;;;;;5387390;26;20015;-76
2024/04/10 07:35:49;;;;;;;0.40;0.40;;;12.60;71.20;;;;;;5386578;26;20073;-76
2024/04/10 07:38:16;;;;;;;0.50;0.50;;;13.70;69.20;;;;;;5386807;26;20443;-73
2024/04/10 07:40:55;;;;;;;0.40;0.40;;;16.30;63.10;;;;;;5397778;26;20010;-74
2024/04/10 07:43:20;;;;;;;0.35;0.35;;;18.20;56.40;;;;;;5420982;26;20000;-74
2024/04/10 07:45:46;;;;;;;0.30;0.30;;;19.70;51.80;;;;;;5417746;26;19998;-74
2024/04/10 07:48:11;;;;;;;0.20;0.20;;;19.80;51.30;;;;;;5421752;26;19995;-74
2024/04/10 07:50:37;;;;;;;0.10;0.10;;;19.80;50.20;;;;;;5422942;26;20007;-73
2024/04/10 07:53:03;;;;;;;0.10;0.10;;;19.40;50.90;;;;;;5412350;26;20004;-75
2024/04/10 07:55:29;;;;;;;0.05;0.05;;;17.70;53.60;;;;;;5384647;26;20078;-75
2024/04/10 07:57:54;;;;;;;0.00;0.00;;;16.20;57.90;;;;;;5384741;26;20004;-74
2024/04/10 08:00:20;;;;;;;0.00;0.00;;;15.30;60.80;;;;;;5407215;26;20081;-75
2024/04/10 08:02:46;;;;;;;0.00;0.00;;;14.40;63.60;;;;;;5394871;26;20456;-74
2024/04/10 08:05:12;;;;;;;0.00;0.00;;;14.00;65.50;;;;;;5458694;26;20006;-74
2024/04/10 08:07:38;;;;;;;0.10;0.10;;;13.60;67.20;;;;;;5416521;26;20008;-76
2024/04/10 08:10:04;;;;;;;0.05;0.05;;;13.20;68.80;;;;;;5401951;26;20012;-74
2024/04/10 08:12:30;;;;;;;0.00;0.00;;;12.90;69.90;;;;;;5404988;26;20010;-74
2024/04/10 08:14:56;;;;;;;0.00;0.00;;;12.80;71.40;;;;;;5404330;26;20014;-74
2024/04/10 08:17:22;;;;;;;0.10;0.10;;;12.80;71.60;;;;;;5405206;26;20015;-73
2024/04/10 08:19:48;;;;;;;0.10;0.10;;;12.80;71.90;;;;;;5402552;26;20032;-74
2024/04/10 08:22:14;;;;;;;0.10;0.10;;;12.80;71.90;;;;;;5400110;26;20000;-74
2024/04/10 08:24:39;;;;;;;0.10;0.10;;;12.80;72.80;;;;;;5402134;26;20004;-74
2024/04/10 08:27:05;;;;;;;0.10;0.10;;;12.80;72.50;;;;;;5385072;26;20089;-74
2024/04/10 08:29:31;;;;;;;0.10;0.10;;;12.80;73.00;;;;;;5388658;26;20001;-74
2024/04/10 08:31:58;;;;;;;0.10;0.10;;;12.90;72.90;;;;;;5416906;26;20015;-74
2024/04/10 08:34:25;;;;;;;0.10;0.10;;;13.00;73.10;;;;;;5384008;26;20000;-74
2024/04/10 08:36:50;;;;;;;0.10;0.10;;;13.10;73.10;;;;;;5386975;26;20014;-74
2024/04/10 08:39:17;;;;;;;0.10;0.10;;;13.10;73.00;;;;;;5421143;26;19999;-75
2024/04/10 08:41:43;;;;;;;0.10;0.10;;;13.10;73.40;;;;;;5417977;26;20457;-75
2024/04/10 08:44:09;;;;;;;0.10;0.10;;;13.10;73.20;;;;;;5420239;26;20004;-75
2024/04/10 08:46:37;;;;;;;0.10;0.10;;;13.10;73.80;;;;;;5387173;26;19996;-74
2024/04/10 08:49:04;;;;;;;0.10;0.10;;;13.20;73.50;;;;;;5386375;26;20033;-75
2024/04/10 08:51:32;;;;;;;0.10;0.10;;;13.20;73.90;;;;;;5386148;26;19996;-75
2024/04/10 08:53:58;;;;;;;0.10;0.10;;;13.20;74.10;;;;;;5385888;26;19992;-74
2024/04/10 08:56:24;;;;;;;0.10;0.10;;;13.20;74.00;;;;;;5410625;26;19995;-74
2024/04/10 08:58:53;;;;;;;0.10;0.10;;;13.20;74.50;;;;;;5403437;26;20010;-75
2024/04/10 09:01:41;;;;;;;0.20;0.20;;;13.20;74.40;;;;;;5403554;26;20073;-75
2024/04/10 09:04:08;;;;;;;0.30;0.30;;;13.50;74.40;;;;;;5411819;26;20033;-75
2024/04/10 09:06:35;;;;;;;0.20;0.20;;;13.90;73.10;;;;;;5404948;26;20000;-75
2024/04/10 09:09:03;;;;;;;0.20;0.20;;;14.50;72.40;;;;;;5390263;26;20005;-74
2024/04/10 09:11:29;;;;;;;0.10;0.10;;;15.00;70.60;;;;;;5383277;26;20040;-74
2024/04/10 09:14:09;;;;;;;0.20;0.20;;;15.30;69.90;;;;;;5385042;26;20001;-74
2024/04/10 09:16:35;;;;;;;0.13;0.13;;;15.70;68.90;;;;;;5386056;26;20335;-74
2024/04/10 09:19:08;;;;;;;0.20;0.20;;;16.00;67.70;;;;;;5386114;26;20019;-74
2024/04/10 09:21:34;;;;;;;0.20;0.20;;;16.10;66.60;;;;;;5400801;26;20019;-74
2024/04/10 09:23:59;;;;;;;0.20;0.20;;;16.10;67.30;;;;;;5394923;26;20008;-74
2024/04/10 09:26:25;;;;;;;0.20;0.20;;;16.30;66.50;;;;;;5383463;26;20027;-75
2024/04/10 09:29:01;;;;;;;0.10;0.10;;;16.60;66.80;;;;;;5385979;26;20005;-75
2024/04/10 09:31:27;;;;;;;0.20;0.20;;;16.80;65.60;;;;;;5385970;26;20019;-76
2024/04/10 09:33:53;;;;;;;0.10;0.10;;;16.70;65.50;;;;;;5385344;26;20017;-76
2024/04/10 09:36:18;;;;;;;0.20;0.20;;;16.70;65.10;;;;;;5410032;26;20099;-76
2024/04/10 09:38:47;;;;;;;0.20;0.20;;;16.70;65.20;;;;;;5418762;26;20035;-76
2024/04/10 09:41:16;;;;;;;0.10;0.10;;;16.80;65.00;;;;;;5412561;26;20027;-76
2024/04/10 09:43:42;;;;;;;0.30;0.30;;;16.80;65.00;;;;;;5417915;26;20000;-76
2024/04/10 09:46:09;;;;;;;0.35;0.35;;;17.10;63.30;;;;;;5420145;26;20007;-76
2024/04/10 09:48:37;;;;;;;0.10;0.10;;;17.50;61.40;;;;;;5402357;26;20004;-76
2024/04/10 09:51:10;;;;;;;0.30;0.30;;;17.20;61.60;;;;;;5417873;26;20007;-76
2024/04/10 09:53:36;;;;;;;0.15;0.15;;;17.10;62.00;;;;;;5385732;26;20000;-76
2024/04/10 09:56:04;;;;;;;0.30;0.30;;;17.30;61.30;;;;;;5418507;26;20000;-76
2024/04/10 09:58:32;;;;;;;0.10;0.10;;;17.60;61.50;;;;;;5396929;26;20435;-76
2024/04/10 10:01:01;;;;;;;0.10;0.10;;;17.90;60.90;;;;;;5396376;26;20010;-76
2024/04/10 10:03:27;;;;;;;0.10;0.10;;;17.80;60.90;;;;;;5415612;26;20011;-76
2024/04/10 10:06:04;;;;;;;0.40;0.40;;;17.80;60.50;;;;;;5454758;26;20027;-76
2024/04/10 10:08:30;;;;;;;0.30;0.30;;;17.80;60.70;;;;;;5404422;26;20059;-76
2024/04/10 10:10:57;;;;;;;0.10;0.10;;;18.10;59.40;;;;;;5417221;26;20798;-76
2024/04/10 10:13:30;;;;;;;0.10;0.10;;;18.00;59.30;;;;;;5419232;26;20039;-76
2024/04/10 10:16:04;;;;;;;;;;;17.70;59.40;;;;;;5417644;26;19995;-76
2024/04/10 10:18:30;;;;;;;0.10;0.10;;;17.80;60.30;;;;;;5417613;26;19924;-76
2024/04/10 10:21:11;;;;;;;0.10;0.10;;;17.80;58.90;;;;;;5418034;26;22218;-76
2024/04/10 10:23:40;;;;;;;0.10;0.10;;;17.70;58.70;;;;;;5414253;26;20016;-76
2024/04/10 10:26:08;;;;;;;0.10;0.10;;;17.60;58.60;;;;;;5393503;26;20466;-76
2024/04/10 10:28:35;;;;;;;0.10;0.10;;;17.30;59.60;;;;;;5394666;26;20000;-75
2024/04/10 10:31:11;;;;;;;0.10;0.10;;;17.10;60.80;;;;;;5418282;26;20000;-76
2024/04/10 10:33:38;;;;;;;0.10;0.10;;;17.20;60.00;;;;;;5388546;26;20060;-76
2024/04/10 10:36:04;;;;;;;0.10;0.10;;;17.30;60.20;;;;;;5384000;26;20024;-76
2024/04/10 10:38:29;;;;;;;0.10;0.10;;;17.30;60.20;;;;;;5410173;26;19996;-76
2024/04/10 10:40:55;;;;;;;0.10;0.10;;;17.30;60.00;;;;;;5384726;26;20425;-76
2024/04/10 10:43:21;;;;;;;0.10;0.10;;;17.30;58.80;;;;;;5411063;26;20015;-76
2024/04/10 10:45:51;;;;;;;0.10;0.10;;;17.40;58.40;;;;;;5384241;26;20000;-76
2024/04/10 10:48:17;;;;;;;0.10;0.10;;;17.40;58.60;;;;;;5381314;26;20016;-76
2024/04/10 10:50:43;;;;;;;0.10;0.10;;;17.40;57.60;;;;;;5381366;26;20000;-76
2024/04/10 10:53:12;;;;;;;0.10;0.10;;;17.50;58.20;;;;;;5392874;26;19996;-76
2024/04/10 10:55:48;;;;;;;0.10;0.10;;;17.60;57.70;;;;;;5410563;26;20005;-76
2024/04/10 10:58:15;;;;;;;0.10;0.10;;;17.70;56.90;;;;;;5382310;26;20017;-76
2024/04/10 11:00:41;;;;;;;0.10;0.10;;;17.80;56.40;;;;;;5405227;26;20375;-75
2024/04/10 11:03:07;;;;;;;0.10;0.10;;;18.00;55.40;;;;;;5422326;26;19998;-76
2024/04/10 11:05:33;;;;;;;0.10;0.10;;;18.20;55.90;;;;;;5453252;26;20009;-75
2024/04/10 11:07:59;;;;;;;0.17;0.17;;;18.30;55.40;;;;;;5455622;26;20445;-75
2024/04/10 11:10:25;;;;;;;0.10;0.10;;;18.20;54.40;;;;;;5385108;26;20439;-75
2024/04/10 11:13:20;;;;;;;0.10;0.10;;;18.20;54.00;;;;;;5381723;26;20032;-76
2024/04/10 11:15:48;;;;;;;0.10;0.10;;;18.10;54.00;;;;;;5367166;26;20012;-76
2024/04/10 11:18:20;;;;;;;0.10;0.10;;;18.00;54.70;;;;;;5403084;26;20442;-76
2024/04/10 11:20:47;;;;;;;0.10;0.10;;;18.10;55.00;;;;;;5419478;26;20003;-75
2024/04/10 11:23:13;;;;;;;0.10;0.10;;;17.90;55.20;;;;;;5418827;26;20004;-76
2024/04/10 11:25:39;;;;;;;0.10;0.10;;;17.70;55.40;;;;;;5417866;26;20515;-75
2024/04/10 11:28:07;;;;;;;0.10;0.10;;;17.50;55.70;;;;;;5388523;26;20074;-76
2024/04/10 11:30:33;;;;;;;0.10;0.10;;;17.60;57.00;;;;;;5394517;26;20035;-75
2024/04/10 11:32:59;;;;;;;0.10;0.10;;;17.50;56.60;;;;;;5416738;26;20000;-75
2024/04/10 11:35:25;;;;;;;0.10;0.10;;;17.60;56.60;;;;;;5419055;26;20009;-75
2024/04/10 11:37:52;;;;;;;0.10;0.10;;;17.50;55.50;;;;;;5393004;26;20015;-76
2024/04/10 11:40:19;;;;;;;0.10;0.10;;;17.50;56.10;;;;;;5390872;26;19999;-75
2024/04/10 11:42:45;;;;;;;0.08;0.08;;;17.00;57.00;;;;;;5419163;26;20089;-76
2024/04/10 11:45:10;;;;;;;0.00;0.00;;;16.90;57.50;;;;;;5416957;26;19999;-75
2024/04/10 11:47:36;;;;;;;0.08;0.08;;;16.70;58.30;;;;;;5387805;26;20109;-75
2024/04/10 11:50:11;;;;;;;0.10;0.10;;;16.60;58.50;;;;;;5383651;26;19996;-75
2024/04/10 11:52:37;;;;;;;0.10;0.10;;;16.40;59.30;;;;;;5383908;26;20004;-76
2024/04/10 11:55:05;;;;;;;0.10;0.10;;;16.60;59.30;;;;;;5383213;26;20023;-75
2024/04/10 11:57:34;;;;;;;0.10;0.10;;;16.70;59.50;;;;;;5410444;26;20326;-75
2024/04/10 12:00:00;;;;;;;0.10;0.10;;;17.00;58.20;;;;;;5419425;26;20018;-76
2024/04/10 12:02:26;;;;;;;0.10;0.10;;;17.20;57.40;;;;;;5420879;26;20014;-75
2024/04/10 12:04:52;;;;;;;0.10;0.10;;;17.20;57.70;;;;;;5455949;26;19999;-76
2024/04/10 12:07:18;;;;;;;0.05;0.05;;;17.30;57.50;;;;;;5450298;26;20009;-77
2024/04/10 12:09:47;;;;;;;0.10;0.10;;;17.30;56.80;;;;;;5400848;26;20008;-76
2024/04/10 12:12:13;;;;;;;0.10;0.10;;;17.30;56.70;;;;;;5400308;26;22938;-76
2024/04/10 12:14:43;;;;;;;0.00;0.00;;;17.30;56.70;;;;;;5402042;26;19999;-75
2024/04/10 12:17:09;;;;;;;0.10;0.10;;;17.20;57.00;;;;;;5403859;26;20001;-75
2024/04/10 12:19:34;;;;;;;0.10;0.10;;;16.80;58.00;;;;;;5400965;26;20036;-76
2024/04/10 12:22:00;;;;;;;0.10;0.10;;;16.70;58.60;;;;;;5395548;26;20011;-76
2024/04/10 12:24:26;;;;;;;0.10;0.10;;;16.70;59.60;;;;;;5402759;26;20015;-76
2024/04/10 12:26:51;;;;;;;0.10;0.10;;;16.50;60.20;;;;;;5414118;26;20332;-76
2024/04/10 12:29:18;;;;;;;0.10;0.10;;;16.70;60.80;;;;;;5406130;26;20003;-76
2024/04/10 12:31:45;;;;;;;0.10;0.10;;;16.80;60.50;;;;;;5416174;26;20000;-75
2024/04/10 12:34:11;;;;;;;0.10;0.10;;;17.10;60.40;;;;;;5400822;26;20000;-76
2024/04/10 12:39:21;;;;;;;0.10;0.10;;;17.60;60.40;;;;;;5390198;26;20035;-76
2024/04/10 12:41:49;;;;;;;0.10;0.10;;;17.80;59.40;;;;;;5415341;26;20007;-75
2024/04/10 12:44:24;;;;;;;0.10;0.10;;;17.70;59.70;;;;;;5419825;26;19992;-76
2024/04/10 12:46:55;;;;;;;0.10;0.10;;;17.70;59.30;;;;;;5421730;26;20350;-76
2024/04/10 12:49:22;;;;;;;0.10;0.10;;;17.60;59.80;;;;;;5392913;26;20000;-76
2024/04/10 12:51:47;;;;;;;0.10;0.10;;;17.50;59.30;;;;;;5395022;26;20010;-76
2024/04/10 12:54:14;;;;;;;0.10;0.10;;;17.30;59.90;;;;;;5400474;26;19999;-76
2024/04/10 12:56:39;;;;;;;0.10;0.10;;;17.20;60.60;;;;;;5405599;26;20848;-76